Time;durP1;ratioP1;P1;durP2;ratioP2;P2;SDS_P1;SDS_P2;PMS_P1;PMS_P2;Temp;Humidity;BMP_temperature;BMP_pressure;BME280_temperature;BME280_humidity;BME280_pressure;Samples;Min_cycle;Max_cycle;Signal;HPM_P1;HPM_P2
2022/10/14 00:01:31;;;;;;;;;4.00;4.00;27.10;99.90;;;;;;5003583;28;8802;-73
2022/10/14 00:04:04;;;;;;;;;4.00;4.00;27.00;99.90;;;;;;5004452;28;8832;-72
2022/10/14 00:06:42;;;;;;;;;4.20;4.20;27.00;99.90;;;;;;5022950;28;8838;-73
2022/10/14 00:09:17;;;;;;;;;3.50;3.50;26.70;99.90;;;;;;4995456;28;8842;-71
2022/10/14 00:11:53;;;;;;;;;4.00;4.00;26.60;99.90;;;;;;5017329;28;8848;-72
2022/10/14 00:14:29;;;;;;;;;3.40;3.40;26.60;99.90;;;;;;5012930;28;8826;-71
2022/10/14 00:17:00;;;;;;;;;3.00;3.00;26.40;99.90;;;;;;4985344;28;8881;-71
2022/10/14 00:19:38;;;;;;;;;5.00;5.00;26.30;99.90;;;;;;5001278;28;8913;-72
2022/10/14 00:22:14;;;;;;;;;7.00;5.00;26.40;99.90;;;;;;5011430;28;9560;-73
2022/10/14 00:24:49;;;;;;;;;3.00;3.00;26.40;99.90;;;;;;4989985;28;8864;-71
2022/10/14 00:27:24;;;;;;;;;3.75;3.00;26.20;99.90;;;;;;5017708;28;8818;-72
2022/10/14 00:30:00;;;;;;;;;2.75;2.75;26.00;99.90;;;;;;4998944;28;9572;-72
2022/10/14 00:32:31;;;;;;;;;4.75;4.00;25.90;99.90;;;;;;4999986;28;8873;-72
2022/10/14 00:35:07;;;;;;;;;2.75;2.75;25.70;99.90;;;;;;5017358;28;8838;-72
2022/10/14 00:37:50;;;;;;;;;3.00;1.25;25.40;99.90;;;;;;5001410;28;8862;-71
2022/10/14 00:40:23;;;;;;;;;4.50;4.00;25.30;99.90;;;;;;5001276;28;8853;-72
2022/10/14 00:42:56;;;;;;;;;5.25;4.75;25.20;99.90;;;;;;5003533;28;8854;-71
2022/10/14 00:45:28;;;;;;;;;3.00;3.00;25.10;99.90;;;;;;5017385;28;8826;-72
2022/10/14 00:48:01;;;;;;;;;4.00;4.00;25.10;99.90;;;;;;5016907;28;8846;-70
2022/10/14 00:50:35;;;;;;;;;3.00;3.00;24.90;99.90;;;;;;5001499;28;8833;-71
2022/10/14 00:53:09;;;;;;;;;4.00;4.00;24.90;99.90;;;;;;5016135;28;8850;-70
2022/10/14 00:55:44;;;;;;;;;3.75;3.50;24.90;99.90;;;;;;4992974;28;8902;-69
2022/10/14 00:58:16;;;;;;;;;2.75;2.75;24.60;99.90;;;;;;4992333;28;8847;-71
2022/10/14 01:00:47;;;;;;;;;4.25;4.25;24.60;99.90;;;;;;4997939;28;9792;-72
2022/10/14 01:03:22;;;;;;;;;3.00;3.00;24.50;99.90;;;;;;4993648;28;8823;-73
2022/10/14 01:06:07;;;;;;;;;5.50;4.00;24.50;99.90;;;;;;4996668;28;8862;-73
2022/10/14 01:08:54;;;;;;;;;3.75;3.75;24.40;99.90;;;;;;4984045;28;9003;-72
2022/10/14 01:11:40;;;;;;;;;6.25;5.75;24.30;99.90;;;;;;4992889;28;8863;-70
2022/10/14 01:14:27;;;;;;;;;5.00;5.00;24.20;99.90;;;;;;4995706;28;8883;-70
2022/10/14 01:17:30;;;;;;;;;5.50;4.25;24.10;99.90;;;;;;5004149;28;8842;-70
2022/10/14 01:20:32;;;;;;;;;4.25;4.25;24.00;99.90;;;;;;4968780;28;8876;-69
2022/10/14 01:24:01;;;;;;;;;5.00;5.00;23.90;99.90;;;;;;4973065;28;8859;-71
2022/10/14 01:27:20;;;;;;;;;3.00;3.00;23.90;99.90;;;;;;4933497;28;8884;-70
2022/10/14 01:30:15;;;;;;;;;4.50;4.50;24.10;99.90;;;;;;4933275;28;8828;-71
2022/10/14 01:33:15;;;;;;;;;4.00;4.00;24.00;99.90;;;;;;4981646;28;8849;-73
2022/10/14 01:36:03;;;;;;;;;5.00;2.50;24.00;99.90;;;;;;4982374;28;9601;-73
2022/10/14 01:39:02;;;;;;;;;4.00;4.00;24.00;99.90;;;;;;4994641;28;9582;-73
2022/10/14 01:41:41;;;;;;;;;5.00;5.00;23.90;99.90;;;;;;4979788;28;8866;-73
2022/10/14 01:44:26;;;;;;;;;3.25;3.25;23.80;99.90;;;;;;4988164;28;8861;-74
2022/10/14 01:47:02;;;;;;;;;3.00;2.75;23.80;99.90;;;;;;4995687;28;8855;-71
2022/10/14 01:49:46;;;;;;;;;4.00;4.00;23.80;99.90;;;;;;4976446;28;8990;-74
2022/10/14 01:52:39;;;;;;;;;5.00;5.00;23.70;99.90;;;;;;4966014;28;9633;-74
2022/10/14 01:55:17;;;;;;;;;3.75;3.75;23.50;99.90;;;;;;4974566;28;8869;-72
2022/10/14 01:57:59;;;;;;;;;4.50;4.50;23.70;99.90;;;;;;5011310;28;8839;-73
2022/10/14 02:00:29;;;;;;;;;4.00;4.00;24.00;99.90;;;;;;5007672;28;8864;-72
2022/10/14 02:03:12;;;;;;;;;3.00;3.00;23.80;99.90;;;;;;4977186;28;8856;-73
2022/10/14 02:06:04;;;;;;;;;3.25;2.25;23.80;99.90;;;;;;4983542;28;8836;-72
2022/10/14 02:09:02;;;;;;;;;3.75;3.75;23.70;99.90;;;;;;4978493;28;8885;-71
2022/10/14 02:11:57;;;;;;;;;3.00;3.00;23.60;99.90;;;;;;4977084;28;8875;-72
2022/10/14 02:14:48;;;;;;;;;2.50;2.50;23.40;99.90;;;;;;4960427;28;9573;-72
2022/10/14 02:17:28;;;;;;;;;3.25;3.25;23.30;99.90;;;;;;5009680;28;8870;-73
2022/10/14 02:20:29;;;;;;;;;2.00;2.00;23.20;99.90;;;;;;4979681;28;9582;-73
2022/10/14 02:23:16;;;;;;;;;4.25;4.25;23.00;99.90;;;;;;5002928;28;8855;-73
2022/10/14 02:25:53;;;;;;;;;4.00;4.00;23.00;99.90;;;;;;5007180;28;8878;-73
2022/10/14 02:28:32;;;;;;;;;4.00;4.00;22.70;99.90;;;;;;4981226;28;8828;-73
2022/10/14 02:31:11;;;;;;;;;3.00;3.00;22.70;99.90;;;;;;4990671;28;8860;-73
2022/10/14 02:33:50;;;;;;;;;3.75;3.75;22.60;99.90;;;;;;5005493;28;8844;-72
2022/10/14 02:36:25;;;;;;;;;3.75;3.75;22.60;99.90;;;;;;5009177;28;8854;-72
2022/10/14 02:39:19;;;;;;;;;4.00;4.00;22.60;99.90;;;;;;5007028;28;8844;-72
2022/10/14 02:41:57;;;;;;;;;1.00;1.00;22.40;99.90;;;;;;4957992;28;8888;-73
2022/10/14 02:44:29;;;;;;;;;5.25;4.00;22.30;99.90;;;;;;5002495;28;8889;-73
2022/10/14 02:47:00;;;;;;;;;4.00;4.00;22.30;99.90;;;;;;4991999;28;8855;-73
2022/10/14 02:49:35;;;;;;;;;4.50;3.75;22.40;99.90;;;;;;5000569;28;8828;-73
2022/10/14 02:52:10;;;;;;;;;3.50;3.50;22.20;99.90;;;;;;4956799;28;9792;-73
2022/10/14 02:54:43;;;;;;;;;2.00;2.00;22.00;99.90;;;;;;4979238;28;8841;-73
2022/10/14 02:57:14;;;;;;;;;3.75;3.75;21.90;99.90;;;;;;4996442;28;8870;-72
2022/10/14 02:59:49;;;;;;;;;5.25;4.25;21.90;99.90;;;;;;4998252;28;8866;-73
2022/10/14 03:02:20;;;;;;;;;3.25;3.25;21.90;99.90;;;;;;4999862;28;8886;-72
2022/10/14 03:04:56;;;;;;;;;2.75;2.00;21.80;99.90;;;;;;5008670;28;9805;-73
2022/10/14 03:07:37;;;;;;;;;3.00;3.00;21.80;99.90;;;;;;5014437;28;8820;-73
2022/10/14 03:10:16;;;;;;;;;3.00;3.00;21.80;99.90;;;;;;4983528;28;8865;-75
2022/10/14 03:12:52;;;;;;;;;4.00;4.00;21.70;99.90;;;;;;5006194;28;8838;-71
2022/10/14 03:15:37;;;;;;;;;3.25;3.25;21.50;99.90;;;;;;5001839;28;8857;-71
2022/10/14 03:18:11;;;;;;;;;3.00;3.00;21.50;99.90;;;;;;5032592;28;8945;-71
2022/10/14 03:20:49;;;;;;;;;2.00;2.00;21.60;99.90;;;;;;5007701;28;8834;-70
2022/10/14 03:23:26;;;;;;;;;3.25;3.25;21.40;99.90;;;;;;5012500;28;8848;-72
2022/10/14 03:26:00;;;;;;;;;2.75;2.75;21.30;99.90;;;;;;5004681;28;8853;-73
2022/10/14 03:28:38;;;;;;;;;3.00;3.00;21.20;99.90;;;;;;4999227;28;8887;-71
2022/10/14 03:31:24;;;;;;;;;2.25;2.25;21.20;99.90;;;;;;4997013;28;8850;-71
2022/10/14 03:34:21;;;;;;;;;3.00;3.00;21.20;99.90;;;;;;5007015;28;8854;-73
2022/10/14 03:37:13;;;;;;;;;1.75;1.75;21.30;99.90;;;;;;5006391;28;8822;-72
2022/10/14 03:39:49;;;;;;;;;3.00;3.00;21.10;99.90;;;;;;4993206;28;8842;-72
2022/10/14 03:42:23;;;;;;;;;3.25;2.00;21.20;99.90;;;;;;5006922;28;8856;-71
2022/10/14 03:44:56;;;;;;;;;3.50;3.00;21.20;99.90;;;;;;5014838;28;8869;-71
2022/10/14 03:47:40;;;;;;;;;1.00;1.00;21.20;99.90;;;;;;5010206;28;8872;-72
2022/10/14 03:50:10;;;;;;;;;2.25;2.25;21.10;99.90;;;;;;5008659;28;8838;-71
2022/10/14 03:52:49;;;;;;;;;3.25;3.25;21.10;99.90;;;;;;5004796;28;8853;-71
2022/10/14 03:55:32;;;;;;;;;3.75;3.75;21.10;99.90;;;;;;5002991;28;8850;-72
2022/10/14 03:58:08;;;;;;;;;2.75;2.75;21.00;99.90;;;;;;5003317;28;8846;-70
2022/10/14 04:00:40;;;;;;;;;3.00;3.00;20.80;99.90;;;;;;5001224;28;8834;-70
2022/10/14 04:03:23;;;;;;;;;2.50;2.50;20.80;99.90;;;;;;4987539;28;8842;-69
2022/10/14 04:05:55;;;;;;;;;3.00;3.00;20.70;99.90;;;;;;4980934;28;8876;-69
2022/10/14 04:08:29;;;;;;;;;2.75;2.75;20.70;99.90;;;;;;5031457;28;8874;-70
2022/10/14 04:11:03;;;;;;;;;3.00;3.00;20.70;99.90;;;;;;4997902;28;8876;-70
2022/10/14 04:13:40;;;;;;;;;3.00;3.00;20.70;99.90;;;;;;5004706;28;8862;-70
2022/10/14 04:16:19;;;;;;;;;2.75;2.75;20.70;99.90;;;;;;4980225;28;8862;-69
2022/10/14 04:19:17;;;;;;;;;1.75;1.75;20.70;99.90;;;;;;5002184;28;8842;-71
2022/10/14 04:21:50;;;;;;;;;2.25;2.25;20.60;99.90;;;;;;4983826;28;8841;-70
2022/10/14 04:24:26;;;;;;;;;2.00;2.00;20.70;99.90;;;;;;4996416;28;8848;-70
2022/10/14 04:26:59;;;;;;;;;3.25;3.25;20.70;99.90;;;;;;5007625;28;8854;-71
2022/10/14 04:29:43;;;;;;;;;3.50;2.75;20.70;99.90;;;;;;4989749;28;8887;-71
2022/10/14 04:32:27;;;;;;;;;3.00;3.00;20.60;99.90;;;;;;4996348;28;8859;-71
2022/10/14 04:35:05;;;;;;;;;2.75;2.75;20.60;99.90;;;;;;5003929;28;8865;-70
2022/10/14 04:37:40;;;;;;;;;1.00;1.00;20.60;99.90;;;;;;4998658;28;8864;-71
2022/10/14 04:40:24;;;;;;;;;2.00;2.00;20.60;99.90;;;;;;5019228;28;8815;-71
2022/10/14 04:43:01;;;;;;;;;3.25;3.25;20.50;99.90;;;;;;5004215;28;8844;-71
2022/10/14 04:45:36;;;;;;;;;4.00;4.00;20.50;99.90;;;;;;4998545;28;8850;-72
2022/10/14 04:48:17;;;;;;;;;3.25;3.25;20.60;99.90;;;;;;5001973;28;8889;-71
2022/10/14 04:50:53;;;;;;;;;2.00;2.00;20.60;99.90;;;;;;5019118;28;8812;-71
2022/10/14 04:54:09;;;;;;;;;3.00;3.00;20.60;99.90;;;;;;5003325;28;8844;-70
2022/10/14 04:56:52;;;;;;;;;2.50;2.50;20.50;99.90;;;;;;4997454;28;8860;-71
2022/10/14 04:59:27;;;;;;;;;3.25;3.25;20.60;99.90;;;;;;4984956;28;8857;-70
2022/10/14 05:02:23;;;;;;;;;3.00;3.00;20.70;99.90;;;;;;5003645;28;8847;-70
2022/10/14 05:04:59;;;;;;;;;3.00;3.00;20.60;99.90;;;;;;4981420;28;8856;-71
2022/10/14 05:07:40;;;;;;;;;2.00;2.00;20.60;99.90;;;;;;5001665;28;8831;-71
2022/10/14 05:10:30;;;;;;;;;3.00;3.00;20.50;99.90;;;;;;4995505;28;8859;-71
2022/10/14 05:13:11;;;;;;;;;2.25;2.25;20.30;99.90;;;;;;5002100;28;9709;-69
2022/10/14 05:16:04;;;;;;;;;1.75;1.75;20.30;99.90;;;;;;5003914;28;8847;-70
2022/10/14 05:18:42;;;;;;;;;3.00;3.00;20.20;99.90;;;;;;4996747;28;8824;-72
2022/10/14 05:21:15;;;;;;;;;2.50;2.50;20.10;99.90;;;;;;5017148;28;8825;-73
2022/10/14 05:24:10;;;;;;;;;3.50;3.50;20.20;99.90;;;;;;5001711;28;8847;-71
2022/10/14 05:26:50;;;;;;;;;3.00;3.00;20.10;99.90;;;;;;5012715;28;8878;-70
2022/10/14 05:29:31;;;;;;;;;2.00;2.00;20.10;99.90;;;;;;5016774;28;8812;-71
2022/10/14 05:32:08;;;;;;;;;4.00;3.25;20.20;99.90;;;;;;4999453;28;8856;-72
2022/10/14 05:35:00;;;;;;;;;2.75;2.75;20.20;99.90;;;;;;5001702;28;8830;-71
2022/10/14 05:37:47;;;;;;;;;3.25;3.25;19.90;99.90;;;;;;5027476;28;8819;-73
2022/10/14 05:40:18;;;;;;;;;3.25;3.00;20.10;99.90;;;;;;4994734;28;8878;-72
2022/10/14 05:42:57;;;;;;;;;3.50;2.00;19.90;99.90;;;;;;4996578;28;8856;-73
2022/10/14 05:45:33;;;;;;;;;2.00;2.00;19.90;99.90;;;;;;5016979;28;8875;-72
2022/10/14 05:48:24;;;;;;;;;2.00;2.00;20.00;99.90;;;;;;4987923;28;9596;-72
2022/10/14 05:51:01;;;;;;;;;2.00;2.00;19.90;99.90;;;;;;4986494;28;8820;-71
2022/10/14 05:53:43;;;;;;;;;2.75;2.75;20.00;99.90;;;;;;4988694;28;8816;-73
2022/10/14 05:56:20;;;;;;;;;3.75;3.75;20.00;99.90;;;;;;4987551;28;8887;-72
2022/10/14 05:58:52;;;;;;;;;2.25;2.25;19.80;99.90;;;;;;4979145;28;8860;-71
2022/10/14 06:01:24;;;;;;;;;3.75;3.75;19.80;99.90;;;;;;4979010;28;8838;-72
2022/10/14 06:03:55;;;;;;;;;3.00;3.00;19.90;99.90;;;;;;4997968;28;8861;-72
2022/10/14 06:06:30;;;;;;;;;2.75;2.75;19.80;99.90;;;;;;4983665;28;9549;-71
2022/10/14 06:09:00;;;;;;;;;3.50;3.50;19.80;99.90;;;;;;4982515;28;8821;-72
2022/10/14 06:11:33;;;;;;;;;2.50;2.50;19.80;99.90;;;;;;4993227;28;8857;-72
2022/10/14 06:14:23;;;;;;;;;2.75;2.75;19.60;99.90;;;;;;5001286;28;8861;-73
2022/10/14 06:16:55;;;;;;;;;4.75;4.75;19.60;99.90;;;;;;4984110;28;9053;-71
2022/10/14 06:19:28;;;;;;;;;2.00;2.00;19.80;99.90;;;;;;4972655;28;8893;-71
2022/10/14 06:22:00;;;;;;;;;3.00;3.00;19.60;99.90;;;;;;5001511;28;8814;-72
2022/10/14 06:24:36;;;;;;;;;2.00;2.00;19.50;99.90;;;;;;4997780;28;8811;-73
2022/10/14 06:27:22;;;;;;;;;3.00;3.00;19.60;99.90;;;;;;5004000;28;8828;-71
2022/10/14 06:29:52;;;;;;;;;3.00;3.00;19.40;99.90;;;;;;4983545;28;8880;-71
2022/10/14 06:32:25;;;;;;;;;2.75;2.75;19.30;99.90;;;;;;5005288;28;8879;-71
2022/10/14 06:34:57;;;;;;;;;4.00;3.50;19.30;99.90;;;;;;4981767;28;8956;-72
2022/10/14 06:37:29;;;;;;;;;3.00;3.00;19.20;99.90;;;;;;5000187;28;8836;-72
2022/10/14 06:40:05;;;;;;;;;1.75;1.75;19.30;99.90;;;;;;4978627;28;9642;-72
2022/10/14 06:42:37;;;;;;;;;1.25;1.25;19.40;99.90;;;;;;4982139;28;8841;-73
2022/10/14 06:45:13;;;;;;;;;2.00;2.00;19.40;99.90;;;;;;4999742;28;8818;-72
2022/10/14 06:47:45;;;;;;;;;1.25;1.25;19.30;99.90;;;;;;4982427;28;8822;-70
2022/10/14 06:50:17;;;;;;;;;3.00;3.00;19.20;99.90;;;;;;4978905;28;8836;-71
2022/10/14 06:52:50;;;;;;;;;2.75;2.75;19.30;99.90;;;;;;5000896;28;8830;-71
2022/10/14 06:55:23;;;;;;;;;2.00;2.00;19.40;99.90;;;;;;4998229;28;8856;-72
2022/10/14 06:57:57;;;;;;;;;3.50;3.50;19.20;99.90;;;;;;4965222;28;8885;-72
2022/10/14 07:00:29;;;;;;;;;3.25;3.25;19.00;99.90;;;;;;4985048;28;8816;-71
2022/10/14 07:03:05;;;;;;;;;3.00;3.00;19.00;99.90;;;;;;4977907;28;8873;-72
2022/10/14 07:05:46;;;;;;;;;3.50;3.00;18.90;99.90;;;;;;4999755;28;8816;-71
2022/10/14 07:08:22;;;;;;;;;2.50;2.50;18.90;99.90;;;;;;4977058;28;8844;-71
2022/10/14 07:10:54;;;;;;;;;1.00;1.00;18.90;99.90;;;;;;4997985;28;8842;-71
2022/10/14 07:13:25;;;;;;;;;1.25;1.25;19.10;99.90;;;;;;4998245;28;8862;-71
2022/10/14 07:16:02;;;;;;;;;3.00;3.00;18.90;99.90;;;;;;4980247;28;9621;-73
2022/10/14 07:18:38;;;;;;;;;2.00;2.00;18.80;99.90;;;;;;4981800;28;8812;-72
2022/10/14 07:21:10;;;;;;;;;3.00;3.00;18.70;99.90;;;;;;4976993;28;8850;-72
2022/10/14 07:23:44;;;;;;;;;3.00;3.00;18.60;99.90;;;;;;4983444;28;9546;-71
2022/10/14 07:26:22;;;;;;;;;2.25;2.25;18.60;99.90;;;;;;4980178;28;8871;-72
2022/10/14 07:28:55;;;;;;;;;2.50;2.50;18.60;99.90;;;;;;4980147;28;8830;-72
2022/10/14 07:31:38;;;;;;;;;2.75;2.75;18.60;99.90;;;;;;4996073;28;8891;-73
2022/10/14 07:34:07;;;;;;;;;3.00;3.00;18.70;99.90;;;;;;4999482;28;9001;-73
2022/10/14 07:36:39;;;;;;;;;2.75;2.75;18.60;99.90;;;;;;5002557;28;8848;-72
2022/10/14 07:39:09;;;;;;;;;2.00;2.00;18.50;99.90;;;;;;4989781;28;8832;-72
2022/10/14 07:41:41;;;;;;;;;2.00;2.00;18.60;99.90;;;;;;5011922;28;9337;-72
2022/10/14 07:44:12;;;;;;;;;3.00;3.00;18.30;99.90;;;;;;4981638;28;8868;-72
2022/10/14 07:46:45;;;;;;;;;3.00;3.00;18.20;99.90;;;;;;4990787;28;8981;-72
2022/10/14 07:49:27;;;;;;;;;2.00;2.00;18.30;99.90;;;;;;4984668;28;8932;-72
2022/10/14 07:51:58;;;;;;;;;3.25;3.25;18.20;99.90;;;;;;4999506;28;8871;-72
2022/10/14 07:54:32;;;;;;;;;1.00;1.00;18.30;99.90;;;;;;4996503;28;8902;-71
2022/10/14 07:57:03;;;;;;;;;3.00;3.00;18.40;99.90;;;;;;5030470;28;8852;-72
2022/10/14 07:59:36;;;;;;;;;2.00;2.00;18.40;99.90;;;;;;4992478;28;8834;-71
2022/10/14 08:02:09;;;;;;;;;1.75;1.75;18.40;99.90;;;;;;5020833;28;8966;-72
2022/10/14 08:04:45;;;;;;;;;3.00;3.00;18.40;99.90;;;;;;5018197;28;8885;-72
2022/10/14 08:07:20;;;;;;;;;1.00;1.00;18.40;99.90;;;;;;5001766;28;8990;-71
2022/10/14 08:09:52;;;;;;;;;5.00;3.25;18.60;99.90;;;;;;5014509;28;9097;-71
2022/10/14 08:12:23;;;;;;;;;4.00;4.00;18.70;99.90;;;;;;5013539;28;10102;-71
2022/10/14 08:14:56;;;;;;;;;3.67;3.67;18.70;99.90;;;;;;5017193;28;8973;-72
2022/10/14 08:17:26;;;;;;;;;3.67;2.00;18.70;99.90;;;;;;4996439;28;9297;-72
2022/10/14 08:19:58;;;;;;;;;1.25;1.25;18.70;99.90;;;;;;5009519;28;8980;-71
2022/10/14 08:22:32;;;;;;;;;1.67;1.67;18.60;99.90;;;;;;5015605;28;8850;-72
2022/10/14 08:28:10;;;;;;;;;3.00;3.00;18.60;99.90;;;;;;5033867;28;8994;-72
2022/10/14 08:30:47;;;;;;;;;4.50;3.00;18.60;99.90;;;;;;5004082;28;9810;-72
2022/10/14 08:33:21;;;;;;;;;4.00;2.25;18.60;99.90;;;;;;5014107;28;9651;-71
2022/10/14 08:35:54;;;;;;;;;3.00;3.00;18.70;99.90;;;;;;5016428;28;8902;-75
2022/10/14 08:38:29;;;;;;;;;4.33;3.00;19.00;99.90;;;;;;5017171;28;9192;-71
2022/10/14 08:41:17;;;;;;;;;3.00;3.00;19.00;99.90;;;;;;5012619;28;8981;-71
2022/10/14 08:43:53;;;;;;;;;2.00;2.00;18.70;99.90;;;;;;5016708;28;8937;-72
2022/10/14 08:46:46;;;;;;;;;2.00;2.00;18.80;99.90;;;;;;5004914;28;8901;-72
2022/10/14 08:49:30;;;;;;;;;3.00;3.00;18.70;99.90;;;;;;4995220;28;8974;-72
2022/10/14 08:52:15;;;;;;;;;3.00;3.00;18.70;99.90;;;;;;5014992;28;8889;-72
2022/10/14 08:54:56;;;;;;;;;1.50;1.50;18.80;99.90;;;;;;5023511;28;9697;-73
2022/10/14 08:57:33;;;;;;;;;2.67;2.67;18.90;99.90;;;;;;4997204;28;8836;-72
2022/10/14 09:00:12;;;;;;;;;3.00;3.00;19.00;99.90;;;;;;4994423;28;8919;-71
2022/10/14 09:02:47;;;;;;;;;2.67;2.67;18.80;99.90;;;;;;4997304;28;8939;-72
2022/10/14 09:05:26;;;;;;;;;2.00;2.00;18.70;99.90;;;;;;4998063;28;9803;-72
2022/10/14 09:08:01;;;;;;;;;3.50;2.00;18.70;99.90;;;;;;4998045;28;8806;-72
2022/10/14 09:10:42;;;;;;;;;2.00;2.00;18.80;99.90;;;;;;5011523;28;8835;-71
2022/10/14 09:13:23;;;;;;;;;3.00;3.00;18.70;99.90;;;;;;4999483;28;8976;-72
2022/10/14 09:16:14;;;;;;;;;2.00;2.00;18.50;99.90;;;;;;5008550;28;9051;-71
2022/10/14 09:19:07;;;;;;;;;3.33;3.33;18.40;99.90;;;;;;4976610;28;9676;-74
2022/10/14 09:21:51;;;;;;;;;1.00;1.00;18.30;99.90;;;;;;5028263;28;9107;-72
2022/10/14 09:24:38;;;;;;;;;2.00;2.00;18.30;99.90;;;;;;4997123;28;9036;-75
2022/10/14 09:27:20;;;;;;;;;2.00;2.00;18.20;99.90;;;;;;4994121;28;8998;-73
2022/10/14 09:30:12;;;;;;;;;1.00;1.00;18.10;99.90;;;;;;5020489;28;9754;-71
2022/10/14 09:32:52;;;;;;;;;2.33;2.33;18.30;99.90;;;;;;5016678;28;9041;-72
2022/10/14 09:35:36;;;;;;;;;2.00;2.00;18.30;99.90;;;;;;4998141;28;9017;-71
2022/10/14 09:38:16;;;;;;;;;2.00;2.00;18.30;99.90;;;;;;5018524;28;9032;-71
2022/10/14 09:41:12;;;;;;;;;2.00;2.00;18.30;99.90;;;;;;5014589;28;9272;-72
2022/10/14 09:44:27;;;;;;;;;2.00;2.00;18.20;99.90;;;;;;5012916;28;9002;-71
2022/10/14 09:47:10;;;;;;;;;1.00;1.00;18.30;99.90;;;;;;5017236;28;9714;-71
2022/10/14 09:49:50;;;;;;;;;2.00;2.00;18.50;99.90;;;;;;5015310;28;8912;-72
2022/10/14 09:52:31;;;;;;;;;3.00;3.00;18.50;99.90;;;;;;5023015;28;9020;-72
2022/10/14 09:55:03;;;;;;;;;2.00;2.00;18.50;99.90;;;;;;4998723;28;8924;-71
2022/10/14 09:57:39;;;;;;;;;2.00;2.00;18.50;99.90;;;;;;5024873;28;9996;-72
2022/10/14 10:00:24;;;;;;;;;1.75;1.75;18.50;99.90;;;;;;5017766;28;9006;-71
2022/10/14 10:02:59;;;;;;;;;3.00;2.00;18.70;99.90;;;;;;5016365;28;8801;-73
2022/10/14 10:08:35;;;;;;;;;2.00;2.00;18.40;99.90;;;;;;5000982;28;9166;-70
2022/10/14 10:11:14;;;;;;;;;1.00;1.00;18.30;99.90;;;;;;5001686;28;9072;-72
2022/10/14 10:13:47;;;;;;;;;2.00;2.00;18.20;99.90;;;;;;4974219;28;9125;-71
2022/10/14 10:16:30;;;;;;;;;2.00;2.00;18.10;99.90;;;;;;5003152;28;9171;-70
2022/10/14 10:19:27;;;;;;;;;1.00;1.00;18.10;99.90;;;;;;4996898;28;9112;-75
2022/10/14 10:22:21;;;;;;;;;2.33;2.33;18.00;99.90;;;;;;4987336;28;9006;-70
2022/10/14 10:25:18;;;;;;;;;2.00;2.00;17.80;99.90;;;;;;5006157;28;9092;-72
2022/10/14 10:27:54;;;;;;;;;2.00;2.00;17.70;99.90;;;;;;5017596;28;9981;-73
2022/10/14 10:30:32;;;;;;;;;2.33;2.33;17.60;99.90;;;;;;5003394;28;9080;-72
2022/10/14 10:33:27;;;;;;;;;2.67;2.00;17.70;99.90;;;;;;5015526;28;9365;-73
2022/10/14 10:36:17;;;;;;;;;2.33;2.33;17.60;99.90;;;;;;5006718;28;9000;-72
2022/10/14 10:39:10;;;;;;;;;2.00;2.00;17.60;99.90;;;;;;5002880;28;10970;-73
2022/10/14 10:42:33;;;;;;;;;1.00;1.00;17.80;99.90;;;;;;5000662;28;10018;-72
2022/10/14 10:45:27;;;;;;;;;1.00;1.00;17.60;99.90;;;;;;4964065;28;9027;-72
2022/10/14 10:48:26;;;;;;;;;2.00;2.00;17.70;99.90;;;;;;5005669;28;9085;-72
2022/10/14 10:51:26;;;;;;;;;2.67;2.67;17.60;99.90;;;;;;5001249;28;9037;-72
2022/10/14 10:54:15;;;;;;;;;2.00;2.00;17.70;99.90;;;;;;5015778;28;9227;-72
2022/10/14 10:57:02;;;;;;;;;1.33;1.33;17.60;99.90;;;;;;4968563;28;9096;-73
2022/10/14 11:00:08;;;;;;;;;3.00;3.00;17.60;99.90;;;;;;4987106;28;9074;-72
2022/10/14 11:02:57;;;;;;;;;1.00;1.00;17.60;99.90;;;;;;5006085;28;9609;-72
2022/10/14 11:05:42;;;;;;;;;2.00;2.00;17.60;99.90;;;;;;4997502;28;9058;-70
2022/10/14 11:12:14;;;;;;;;;1.00;1.00;17.50;99.90;;;;;;4995928;28;9297;-73
2022/10/14 11:15:10;;;;;;;;;2.00;2.00;17.40;99.90;;;;;;4965633;28;9196;-70
2022/10/14 11:18:26;;;;;;;;;1.33;1.33;17.60;99.90;;;;;;5005499;28;9297;-72
2022/10/14 11:21:24;;;;;;;;;3.33;2.00;17.60;99.90;;;;;;4975019;28;9233;-71
2022/10/14 11:24:25;;;;;;;;;2.33;2.33;17.40;99.90;;;;;;4978640;28;9214;-72
2022/10/14 11:27:25;;;;;;;;;1.00;1.00;17.30;99.90;;;;;;4993888;28;9296;-72
2022/10/14 11:30:07;;;;;;;;;2.00;2.00;17.40;99.90;;;;;;4985229;28;9129;-71
2022/10/14 11:35:50;;;;;;;;;2.00;2.00;17.80;99.90;;;;;;4998183;28;9224;-73
2022/10/14 11:38:43;;;;;;;;;1.00;1.00;17.70;99.90;;;;;;5003306;28;9209;-72
2022/10/14 11:41:40;;;;;;;;;3.00;1.67;18.00;99.90;;;;;;5001903;28;9272;-71
2022/10/14 11:44:27;;;;;;;;;2.00;2.00;18.30;99.90;;;;;;4999346;28;9318;-72
2022/10/14 11:47:13;;;;;;;;;1.00;1.00;18.60;99.90;;;;;;4980141;28;9234;-72
2022/10/14 11:49:54;;;;;;;;;3.67;2.67;18.70;99.90;;;;;;5005722;28;9387;-73
2022/10/14 11:52:38;;;;;;;;;2.33;2.33;18.80;99.90;;;;;;4983659;28;9265;-70
2022/10/14 11:55:23;;;;;;;;;3.00;3.00;18.90;99.90;;;;;;4981316;28;9378;-71
2022/10/14 11:58:15;;;;;;;;;2.00;2.00;18.70;99.90;;;;;;4986733;28;9076;-72
2022/10/14 12:00:58;;;;;;;;;1.00;1.00;18.60;99.90;;;;;;4975481;28;9192;-72
2022/10/14 12:03:58;;;;;;;;;2.00;2.00;18.30;99.90;;;;;;4983644;28;9152;-71
2022/10/14 12:06:55;;;;;;;;;4.33;2.67;18.00;99.90;;;;;;4968457;28;9084;-70
2022/10/14 12:09:50;;;;;;;;;3.00;3.00;18.00;99.90;;;;;;4988214;28;9012;-72
2022/10/14 12:12:29;;;;;;;;;3.00;3.00;17.70;99.90;;;;;;4979827;28;10512;-73
2022/10/14 12:15:05;;;;;;;;;2.33;2.33;17.60;99.90;;;;;;4961181;28;9066;-73
2022/10/14 12:17:53;;;;;;;;;2.33;2.33;17.50;99.90;;;;;;4995221;28;9310;-72
2022/10/14 12:20:49;;;;;;;;;3.00;3.00;17.60;99.90;;;;;;4983022;28;9187;-72
2022/10/14 12:23:47;;;;;;;;;3.00;3.00;17.60;99.90;;;;;;4971211;28;9258;-70
2022/10/14 12:26:23;;;;;;;;;3.00;3.00;17.60;99.90;;;;;;4979648;28;9318;-70
2022/10/14 12:29:03;;;;;;;;;2.00;2.00;17.70;99.90;;;;;;5000006;28;9379;-74
2022/10/14 12:31:39;;;;;;;;;2.00;2.00;17.90;99.90;;;;;;4976467;28;9817;-74
2022/10/14 12:34:17;;;;;;;;;2.00;2.00;17.80;99.90;;;;;;4980010;28;9236;-74
2022/10/14 12:36:53;;;;;;;;;3.00;3.00;17.80;99.90;;;;;;4965237;28;9164;-73
2022/10/14 12:39:43;;;;;;;;;3.67;3.67;17.90;99.90;;;;;;4985944;28;9471;-74
2022/10/14 12:42:20;;;;;;;;;3.00;3.00;17.90;99.90;;;;;;4986414;28;9360;-73
2022/10/14 12:44:55;;;;;;;;;2.00;2.00;17.90;99.90;;;;;;4980036;28;9366;-72
2022/10/14 12:47:33;;;;;;;;;2.00;2.00;17.80;99.90;;;;;;4990585;28;9453;-73
2022/10/14 12:50:16;;;;;;;;;2.00;2.00;17.70;99.90;;;;;;4975186;28;9378;-72
2022/10/14 12:52:57;;;;;;;;;3.00;3.00;17.90;99.90;;;;;;4991160;28;10190;-72
2022/10/14 12:55:38;;;;;;;;;2.00;2.00;17.60;99.90;;;;;;4970578;28;9457;-71
2022/10/14 12:59:04;;;;;;;;;2.00;2.00;17.60;99.90;;;;;;4996694;28;9400;-71
2022/10/14 13:01:43;;;;;;;;;3.67;2.33;17.60;99.90;;;;;;4932273;28;9600;-70
2022/10/14 13:04:19;;;;;;;;;1.00;1.00;17.50;99.90;;;;;;4939435;28;9411;-70
2022/10/14 13:07:13;;;;;;;;;1.67;1.67;17.50;99.90;;;;;;4986524;28;9278;-72
2022/10/14 13:10:26;;;;;;;;;2.00;2.00;17.60;99.90;;;;;;5015778;28;9335;-72
2022/10/14 13:13:17;;;;;;;;;3.33;2.00;17.40;99.90;;;;;;4983930;28;10101;-72
2022/10/14 13:15:52;;;;;;;;;3.00;3.00;17.30;99.90;;;;;;5011793;28;10351;-72
2022/10/14 13:18:32;;;;;;;;;2.33;2.33;17.60;99.90;;;;;;5005294;28;9378;-71
2022/10/14 13:21:11;;;;;;;;;3.00;3.00;17.50;99.90;;;;;;5015932;28;9492;-72
2022/10/14 13:23:53;;;;;;;;;2.00;2.00;17.80;99.90;;;;;;4995434;28;9487;-72
2022/10/14 13:26:54;;;;;;;;;3.00;3.00;17.60;99.90;;;;;;4996426;28;9308;-72
2022/10/14 13:29:54;;;;;;;;;2.33;2.33;17.70;99.90;;;;;;4998981;28;9290;-72
2022/10/14 13:32:34;;;;;;;;;3.00;3.00;17.80;99.90;;;;;;5015172;28;10105;-73
2022/10/14 13:35:23;;;;;;;;;4.00;4.00;17.80;99.90;;;;;;5002859;28;9358;-72
2022/10/14 13:38:05;;;;;;;;;1.33;1.33;17.90;99.90;;;;;;5016860;28;9069;-72
2022/10/14 13:40:44;;;;;;;;;2.00;2.00;18.00;99.90;;;;;;5015487;28;9265;-71
2022/10/14 13:43:43;;;;;;;;;3.00;3.00;18.20;99.90;;;;;;5017974;28;9342;-72
2022/10/14 13:46:27;;;;;;;;;2.00;2.00;18.30;99.90;;;;;;5021519;28;9085;-72
2022/10/14 13:49:01;;;;;;;;;2.00;2.00;18.40;99.90;;;;;;4998539;28;9285;-71
2022/10/14 13:52:00;;;;;;;;;2.33;2.33;18.50;99.90;;;;;;5018181;28;9164;-74
2022/10/14 13:54:31;;;;;;;;;5.67;4.00;18.60;99.90;;;;;;4999019;28;9177;-72
2022/10/14 13:57:07;;;;;;;;;4.33;3.00;18.70;99.90;;;;;;4993125;28;10296;-72
2022/10/14 14:00:34;;;;;;;;;4.00;2.33;18.80;99.90;;;;;;4988700;28;9425;-72
2022/10/14 14:03:39;;;;;;;;;1.67;1.00;18.90;99.90;;;;;;5014340;28;9322;-73
2022/10/14 14:06:21;;;;;;;;;3.33;3.33;19.00;99.90;;;;;;4979747;28;9170;-72
2022/10/14 14:09:21;;;;;;;;;4.67;4.67;19.10;99.90;;;;;;5012840;28;9297;-73
2022/10/14 14:12:05;;;;;;;;;3.00;3.00;19.20;99.90;;;;;;4989470;28;8953;-72
2022/10/14 14:14:55;;;;;;;;;3.33;3.00;19.20;99.90;;;;;;4998391;28;11438;-71
2022/10/14 14:17:31;;;;;;;;;3.00;3.00;19.30;99.90;;;;;;5019953;28;9027;-71
2022/10/14 14:20:13;;;;;;;;;3.33;3.33;19.40;99.90;;;;;;4980045;28;8990;-72
2022/10/14 14:22:50;;;;;;;;;4.33;3.00;19.50;99.90;;;;;;5013930;28;9125;-71
2022/10/14 14:25:35;;;;;;;;;3.00;3.00;19.70;99.90;;;;;;5002537;28;9106;-72
2022/10/14 14:28:31;;;;;;;;;3.33;2.00;19.70;99.90;;;;;;5014249;28;9215;-71